Details From EDAH - Heringsdorf
To ESMK - Kristianstad
Flight Number -
Tags generated
Created
Modified
Stats Distance 123 nm / 227 km
Max Altitude 10,100 ft / 3,078 m
Waypoints 3
Social Downloads 1
Likes 0
Share VATSIM

Download

Looking for another format? Having issues loading an existing format? Contact us
Advertisement - Login to hide

Notes

Basic altitude profile: - Ascent Rate: 2500ft/min - Ascent Speed: 250kts - Cruise Altitude: 35000ft - Cruise Speed: 420kts - Descent Rate: 1500ft/min - Descent Speed: 250kts Options: - Use NATs: yes - Use PACOTS: yes - Use low airways: yes - Use high airways: yes

Route

EDAH TELMO ESMK

ID Type Via Altitude Latitude Longitude Leg Dist Tot Dist Heading (true) Name
O EDAH APT - 0 ft / 0 m 53.87899˚ 14.14851˚ - 0 nm - Heringsdorf
TELMO FIX - 10,100 ft / 3,078 m 55.05461˚ 14.11628˚ 70 nm 70 nm 359° / 359° -
O ESMK APT - 0 ft / 0 m 55.92169˚ 14.08553˚ 52 nm 122 nm 359° / 359° Kristianstad

Altitude Profile

Advertisement - Login to hide

EDAH

Details ICAO EDAH (HDF)
Name Heringsdorf
Region Germany - Civil
Timezone Europe/Berlin (UTC+1.0)
Stats Elevation 93 ft / 28 m (AMSL)
Location 53.878985° 14.148508°
Runways 2
Magnetic Variation 4.093° E

METAR

EDAH 110920Z 22009KT 6000 BKN004 02/01 Q0986

Decode

TAF

Not found

Departure Runways

ID Width Length Bearing (true) Bearing (mag) Surface Threshold Offset Overrun Length
10 115 ft / 35 m 7,541 ft / 2,299 m 105.53° 101.44° Asphalt 0 ft / 0 m 0 ft / 0 m
10R 98 ft / 30 m 1,970 ft / 601 m 105.67° 101.58° Grass 0 ft / 0 m 0 ft / 0 m
28 115 ft / 35 m 7,541 ft / 2,299 m 285.56° 281.47° Asphalt 0 ft / 0 m 0 ft / 0 m
28L 98 ft / 30 m 1,970 ft / 601 m 285.68° 281.59° Grass 0 ft / 0 m 0 ft / 0 m

ESMK

Details ICAO ESMK (KID)
Name Kristianstad
Region Sweden
Timezone Europe/Stockholm (UTC+1.0)
Stats Elevation 76 ft / 23 m (AMSL)
Location 55.921686° 14.085535°
Runways 1
Magnetic Variation 4.232° E

METAR

ESMK 110920Z 03009KT 9999 BKN029 BKN043 00/00 Q0986

Decode

TAF

Not found

Destination Runways

ID Width Length Bearing (true) Bearing (mag) Surface Threshold Offset Overrun Length
01 148 ft / 45 m 7,259 ft / 2,213 m 7.13° 2.90° Asphalt 0 ft / 0 m 0 ft / 0 m
19 148 ft / 45 m 7,259 ft / 2,213 m 187.13° 182.90° Asphalt 0 ft / 0 m 0 ft / 0 m

Approach Navaids

Runway Type Ident Frequency Range Bearing (true) Bearing (mag) Slope Elevation
19 Localiser MK 108.50 MHz 18 nm / 33 km 187.13° 182.90° - 76 ft / 23 m (AMSL)
19 Glidescope MK 108.50 MHz 10 nm / 19 km 187.13° 182.90° 3.25° 76 ft / 23 m (AMSL)

Popular Alternatives